James Davison — WDF9427 — position and weather

sailwx.info

Track history (hours):
 
Tides and Currents Weather Stations Pressure Air Temp Water Temp Dewpoint Dewpoint Depression Visibility Wind Speed Wind Dir Waves Ship Positions

James Davison

Owner: Genesis Marine, LLC, Houston, TX. More information available from US FCC via Universal Licensing System and Coast Guard Vessel Documentation Center.

Last reported at 2017-Nov-18 22:22 UTC. Time now 2017-Nov-22 05:37 UTC.
Position N 29°33' W 090°28'.

Length 26 m; draft 3 m.

Type: Other ship. MMSI: 367505050.

Date/timePositionNaut miles runAvg speedWind from/ knotsBaromVisibWave heightAir tempDewpointWater temp
2017-Nov-18 22:22N 29°33' W 090°28'2 6.2
2017-Nov-18 22:01N 29°34' W 090°31'3 5.6
2017-Nov-18 21:30N 29°34' W 090°34'3 5.6
2017-Nov-18 21:01N 29°35' W 090°37'2 4.1
2017-Nov-18 20:31N 29°36' W 090°39'1 2.8
2017-Nov-18 20:01N 29°36' W 090°41'2 4.8
2017-Nov-18 19:31N 29°35' W 090°43'2 3.2
2017-Nov-18 19:01N 29°34' W 090°42'2 4.6
2017-Nov-18 18:30N 29°36' W 090°43'2 4.4
2017-Nov-18 18:01N 29°36' W 090°40'0 0.7
2017-Nov-18 17:31N 29°36' W 090°40'2 4.3
2017-Nov-18 17:01N 29°37' W 090°42'2 3.8
2017-Nov-18 16:30N 29°35' W 090°43'2 3.8
2017-Nov-18 16:01N 29°34' W 090°45'2 4.5
2017-Nov-18 15:31N 29°32' W 090°46'3 5.3
2017-Nov-18 15:00N 29°32' W 090°49'5 5.6
2017-Nov-18 14:12N 29°33' W 090°54'1 6.2
2017-Nov-18 13:58N 29°34' W 090°56'3 5.7
2017-Nov-18 13:30N 29°36' W 090°58'54 3.6
2017-Nov-17 22:28N 29°50' W 091°58'2 5.2
2017-Nov-17 22:00N 29°50' W 092°00'3 5.6
2017-Nov-17 21:30N 29°49' W 092°03'3 5.7
2017-Nov-17 21:00N 29°48' W 092°06'3 5.9
2017-Nov-17 20:30N 29°47' W 092°10'3 5.3
2017-Nov-17 20:00N 29°47' W 092°13'3 5.6
2017-Nov-17 19:30N 29°48' W 092°16'2 4.6
2017-Nov-17 19:00N 29°50' W 092°18'2 3.7
2017-Nov-17 18:30N 29°50' W 092°20'41 5.0
2017-Nov-17 10:15N 29°56' W 093°07'1 5.0
2017-Nov-17 09:58N 29°56' W 093°09'2 4.6
2017-Nov-17 09:30N 29°57' W 093°11'3 5.1
2017-Nov-17 09:00N 29°59' W 093°13'2 4.6
2017-Nov-17 08:30N 30°01' W 093°14'2 4.7
2017-Nov-17 08:00N 30°03' W 093°16'2 3.6
2017-Nov-17 07:30N 30°05' W 093°17'1 2.5
2017-Nov-17 07:00N 30°05' W 093°18'1 1.4
2017-Nov-17 06:30N 30°06' W 093°18'0 0.0
2017-Nov-17 06:00N 30°06' W 093°18'0 0.0
2017-Nov-17 05:30N 30°06' W 093°18'0 0.0
2017-Nov-17 05:00N 30°06' W 093°18'0 0.0
2017-Nov-17 04:30N 30°06' W 093°18'0 0.0
2017-Nov-17 04:00N 30°06' W 093°18'0 0.1
2017-Nov-17 03:30N 30°06' W 093°18'1 2.6
2017-Nov-17 03:00N 30°05' W 093°20'2 3.8
2017-Nov-17 02:30N 30°04' W 093°21'2 3.2
2017-Nov-17 02:00N 30°04' W 093°23'2 4.9
2017-Nov-17 01:30N 30°04' W 093°26'2 4.9
2017-Nov-17 01:00N 30°04' W 093°28'3 5.1
2017-Nov-17 00:30N 30°04' W 093°31'  
2017-Nov-09 06:41N 29°30' W 094°52'1 6.6
2017-Nov-09 06:30N 29°31' W 094°53'3 6.4
2017-Nov-09 06:01N 29°34' W 094°55'3 6.8
2017-Nov-09 05:30N 29°37' W 094°57'3 6.4
2017-Nov-09 05:01N 29°37' W 095°01'1 1.1
2017-Nov-09 04:31N 29°37' W 095°02'0 0.2
2017-Nov-09 04:01N 29°37' W 095°01'0 0.1
2017-Nov-09 03:31N 29°37' W 095°01'0 0.1
2017-Nov-09 03:01N 29°37' W 095°01'0 0.0
2017-Nov-09 02:31N 29°37' W 095°01'0 0.0
2017-Nov-09 02:01N 29°37' W 095°01'0 0.0
2017-Nov-09 01:31N 29°37' W 095°01'0 0.0
2017-Nov-09 01:00N 29°37' W 095°01'0 0.0
2017-Nov-09 00:30N 29°37' W 095°01'0 0.0
2017-Nov-09 00:01N 29°37' W 095°01'0 0.3
2017-Nov-08 23:30N 29°37' W 095°01'0 0.0
2017-Nov-08 23:01N 29°37' W 095°01'0 0.0
2017-Nov-08 22:31N 29°37' W 095°01'  
Track history (hours):
 
Tides and Currents Weather Stations Pressure Air Temp Water Temp Dewpoint Dewpoint Depression Visibility Wind Speed Wind Dir Waves Ship Positions

James Davison

Owner: Genesis Marine, LLC, Houston, TX. More information available from US FCC via Universal Licensing System and Coast Guard Vessel Documentation Center.

Last reported at 2017-Nov-18 22:22 UTC. Time now 2017-Nov-22 05:37 UTC.
Position N 29°33' W 090°28'.

Length 26 m; draft 3 m.

Type: Other ship. MMSI: 367505050.

Date/timePositionNaut miles runAvg speedWind from/ knotsBaromVisibWave heightAir tempDewpointWater temp
2017-Nov-18 22:22N 29°33' W 090°28'2 6.2
2017-Nov-18 22:01N 29°34' W 090°31'3 5.6
2017-Nov-18 21:30N 29°34' W 090°34'3 5.6
2017-Nov-18 21:01N 29°35' W 090°37'2 4.1
2017-Nov-18 20:31N 29°36' W 090°39'1 2.8
2017-Nov-18 20:01N 29°36' W 090°41'2 4.8
2017-Nov-18 19:31N 29°35' W 090°43'2 3.2
2017-Nov-18 19:01N 29°34' W 090°42'2 4.6
2017-Nov-18 18:30N 29°36' W 090°43'2 4.4
2017-Nov-18 18:01N 29°36' W 090°40'0 0.7
2017-Nov-18 17:31N 29°36' W 090°40'2 4.3
2017-Nov-18 17:01N 29°37' W 090°42'2 3.8
2017-Nov-18 16:30N 29°35' W 090°43'2 3.8
2017-Nov-18 16:01N 29°34' W 090°45'2 4.5
2017-Nov-18 15:31N 29°32' W 090°46'3 5.3
2017-Nov-18 15:00N 29°32' W 090°49'5 5.6
2017-Nov-18 14:12N 29°33' W 090°54'1 6.2
2017-Nov-18 13:58N 29°34' W 090°56'3 5.7
2017-Nov-18 13:30N 29°36' W 090°58'54 3.6
2017-Nov-17 22:28N 29°50' W 091°58'2 5.2
2017-Nov-17 22:00N 29°50' W 092°00'3 5.6
2017-Nov-17 21:30N 29°49' W 092°03'3 5.7
2017-Nov-17 21:00N 29°48' W 092°06'3 5.9
2017-Nov-17 20:30N 29°47' W 092°10'3 5.3
2017-Nov-17 20:00N 29°47' W 092°13'3 5.6
2017-Nov-17 19:30N 29°48' W 092°16'2 4.6
2017-Nov-17 19:00N 29°50' W 092°18'2 3.7
2017-Nov-17 18:30N 29°50' W 092°20'41 5.0
2017-Nov-17 10:15N 29°56' W 093°07'1 5.0
2017-Nov-17 09:58N 29°56' W 093°09'2 4.6
2017-Nov-17 09:30N 29°57' W 093°11'3 5.1
2017-Nov-17 09:00N 29°59' W 093°13'2 4.6
2017-Nov-17 08:30N 30°01' W 093°14'2 4.7
2017-Nov-17 08:00N 30°03' W 093°16'2 3.6
2017-Nov-17 07:30N 30°05' W 093°17'1 2.5
2017-Nov-17 07:00N 30°05' W 093°18'1 1.4
2017-Nov-17 06:30N 30°06' W 093°18'0 0.0
2017-Nov-17 06:00N 30°06' W 093°18'0 0.0
2017-Nov-17 05:30N 30°06' W 093°18'0 0.0
2017-Nov-17 05:00N 30°06' W 093°18'0 0.0
2017-Nov-17 04:30N 30°06' W 093°18'0 0.0
2017-Nov-17 04:00N 30°06' W 093°18'0 0.1
2017-Nov-17 03:30N 30°06' W 093°18'1 2.6
2017-Nov-17 03:00N 30°05' W 093°20'2 3.8
2017-Nov-17 02:30N 30°04' W 093°21'2 3.2
2017-Nov-17 02:00N 30°04' W 093°23'2 4.9
2017-Nov-17 01:30N 30°04' W 093°26'2 4.9
2017-Nov-17 01:00N 30°04' W 093°28'3 5.1
2017-Nov-17 00:30N 30°04' W 093°31'  
2017-Nov-09 06:41N 29°30' W 094°52'1 6.6
2017-Nov-09 06:30N 29°31' W 094°53'3 6.4
2017-Nov-09 06:01N 29°34' W 094°55'3 6.8
2017-Nov-09 05:30N 29°37' W 094°57'3 6.4
2017-Nov-09 05:01N 29°37' W 095°01'1 1.1
2017-Nov-09 04:31N 29°37' W 095°02'0 0.2
2017-Nov-09 04:01N 29°37' W 095°01'0 0.1
2017-Nov-09 03:31N 29°37' W 095°01'0 0.1
2017-Nov-09 03:01N 29°37' W 095°01'0 0.0
2017-Nov-09 02:31N 29°37' W 095°01'0 0.0
2017-Nov-09 02:01N 29°37' W 095°01'0 0.0
2017-Nov-09 01:31N 29°37' W 095°01'0 0.0
2017-Nov-09 01:00N 29°37' W 095°01'0 0.0
2017-Nov-09 00:30N 29°37' W 095°01'0 0.0
2017-Nov-09 00:01N 29°37' W 095°01'0 0.3
2017-Nov-08 23:30N 29°37' W 095°01'0 0.0
2017-Nov-08 23:01N 29°37' W 095°01'0 0.0
2017-Nov-08 22:31N 29°37' W 095°01'  

Dump ship's entire track history